Time;durP1;ratioP1;P1;durP2;ratioP2;P2;SDS_P1;SDS_P2;PMS_P1;PMS_P2;Temp;Humidity;BMP_temperature;BMP_pressure;BME280_temperature;BME280_humidity;BME280_pressure;Samples;Min_cycle;Max_cycle;Signal;HPM_P1;HPM_P2
2021/10/02 00:46:41;;;;;;;30.52;18.65;;;20.20;90.90;;;;;;6193543;23;20456;-78
2021/10/02 00:49:48;;;;;;;32.22;17.70;;;20.20;90.80;;;;;;6193410;23;20071;-78
2021/10/02 00:52:52;;;;;;;29.73;19.45;;;20.10;90.90;;;;;;6193370;23;20012;-79
2021/10/02 00:55:56;;;;;;;32.72;18.67;;;20.00;90.90;;;;;;6193227;23;20027;-79
2021/10/02 00:59:00;;;;;;;31.80;19.90;;;20.00;91.10;;;;;;6192793;23;20020;-79
2021/10/02 01:02:12;;;;;;;29.23;19.13;;;19.90;91.40;;;;;;6192324;23;20460;-78
2021/10/02 01:05:53;;;;;;;61.15;21.25;;;19.90;91.50;;;;;;6192300;23;20036;-78
2021/10/02 01:09:10;;;;;;;36.70;20.85;;;19.70;91.60;;;;;;6193349;23;20040;-78
2021/10/02 01:13:02;;;;;;;30.27;19.52;;;19.60;92.00;;;;;;6193264;23;20475;-78
2021/10/02 01:16:15;;;;;;;29.40;19.40;;;19.60;92.20;;;;;;6175047;23;20035;-78
2021/10/02 01:19:55;;;;;;;29.52;18.88;;;19.70;92.10;;;;;;6193421;23;20496;-78
2021/10/02 01:23:08;;;;;;;31.08;19.40;;;19.60;92.10;;;;;;6193306;23;20035;-78
2021/10/02 01:26:21;;;;;;;29.88;18.63;;;19.60;92.10;;;;;;6193150;23;20024;-79
2021/10/02 01:29:27;;;;;;;25.73;18.60;;;19.60;92.20;;;;;;6193988;23;20016;-79
2021/10/02 01:32:40;;;;;;;24.90;17.10;;;19.70;91.90;;;;;;6191826;23;20024;-79
2021/10/02 01:49:25;;;;;;;26.20;17.33;;;19.20;92.50;;;;;;6193086;23;20032;-78
2021/10/02 01:52:32;;;;;;;29.88;19.35;;;19.30;92.70;;;;;;6192674;23;20016;-78
2021/10/02 01:55:37;;;;;;;28.33;18.67;;;19.40;92.20;;;;;;6192763;23;20195;-79
2021/10/02 01:58:43;;;;;;;28.92;17.77;;;19.30;92.40;;;;;;6193067;23;20024;-78
2021/10/02 02:01:48;;;;;;;24.33;17.27;;;19.30;92.20;;;;;;6191978;23;20069;-78
2021/10/02 02:04:56;;;;;;;27.95;18.13;;;19.40;92.10;;;;;;6192873;23;20020;-78
2021/10/02 02:08:07;;;;;;;28.92;17.30;;;19.30;92.10;;;;;;6192950;23;20020;-79
2021/10/02 02:11:11;;;;;;;37.07;18.23;;;19.20;92.40;;;;;;6192684;23;20020;-78
2021/10/02 02:14:16;;;;;;;25.02;17.40;;;19.20;92.30;;;;;;6192559;23;20020;-78
2021/10/02 02:17:22;;;;;;;30.55;17.80;;;19.20;92.40;;;;;;6192585;23;20040;-79
2021/10/02 02:20:33;;;;;;;29.90;17.20;;;19.20;92.30;;;;;;6193317;23;20016;-78
2021/10/02 02:23:37;;;;;;;27.60;17.70;;;19.20;92.40;;;;;;6192701;23;20024;-78
2021/10/02 02:26:41;;;;;;;28.63;17.88;;;19.30;92.20;;;;;;6192644;23;20020;-78
2021/10/02 02:29:47;;;;;;;28.30;18.33;;;19.40;91.90;;;;;;6192803;23;20020;-79
2021/10/02 02:32:52;;;;;;;30.92;16.95;;;19.40;91.70;;;;;;6192768;23;20025;-78
2021/10/02 02:35:56;;;;;;;28.45;17.20;;;19.40;91.90;;;;;;6192686;23;20353;-78
2021/10/02 02:38:59;;;;;;;26.73;17.30;;;19.30;92.10;;;;;;6192735;23;20016;-78
2021/10/02 02:42:04;;;;;;;23.20;16.83;;;19.30;91.90;;;;;;6191754;23;20466;-78
2021/10/02 02:45:13;;;;;;;26.75;17.10;;;19.10;92.10;;;;;;6191601;23;20016;-78
2021/10/02 02:48:24;;;;;;;26.17;16.73;;;19.10;92.30;;;;;;6191614;23;20020;-78
2021/10/02 02:51:37;;;;;;;27.55;17.25;;;19.00;92.50;;;;;;6192689;23;20020;-78
2021/10/02 02:54:54;;;;;;;30.63;17.40;;;18.90;92.60;;;;;;6191644;23;20021;-79
2021/10/02 02:58:08;;;;;;;24.70;15.70;;;18.90;92.50;;;;;;6191579;23;20028;-78
2021/10/02 03:01:13;;;;;;;24.80;15.90;;;18.90;92.30;;;;;;6192645;23;20020;-78
2021/10/02 03:04:19;;;;;;;26.98;16.63;;;18.90;92.20;;;;;;6194340;23;20020;-78
2021/10/02 03:07:25;;;;;;;30.90;17.17;;;18.90;91.90;;;;;;6184809;23;20496;-78
2021/10/02 03:10:30;;;;;;;23.02;16.17;;;18.90;92.10;;;;;;6193526;23;20366;-78
2021/10/02 03:13:37;;;;;;;28.38;16.45;;;18.90;92.00;;;;;;6193303;23;20345;-78
2021/10/02 03:16:43;;;;;;;27.88;16.20;;;18.80;92.30;;;;;;6194414;23;20353;-79
2021/10/02 03:19:49;;;;;;;23.73;16.13;;;18.80;92.30;;;;;;6193983;23;20016;-78
2021/10/02 03:22:55;;;;;;;25.95;16.73;;;19.00;91.90;;;;;;6193391;23;20020;-78
2021/10/02 03:26:01;;;;;;;26.73;16.67;;;18.90;91.80;;;;;;6193180;23;20043;-78
2021/10/02 03:29:05;;;;;;;22.35;15.90;;;18.90;91.90;;;;;;6194126;23;20028;-78
2021/10/02 03:32:10;;;;;;;26.23;16.83;;;18.90;91.90;;;;;;6194444;23;20456;-78
2021/10/02 03:35:14;;;;;;;31.08;17.60;;;18.90;92.00;;;;;;6194181;23;20024;-78
2021/10/02 03:38:18;;;;;;;28.00;17.45;;;18.90;92.10;;;;;;6194047;23;20028;-78
2021/10/02 03:41:22;;;;;;;27.90;15.43;;;18.80;92.20;;;;;;6193080;23;20036;-78
2021/10/02 03:44:26;;;;;;;26.75;16.40;;;18.80;92.40;;;;;;6194119;23;20024;-78
2021/10/02 03:47:30;;;;;;;27.73;16.98;;;18.70;92.50;;;;;;6193004;23;20024;-78
2021/10/02 03:50:34;;;;;;;27.65;16.73;;;18.60;92.70;;;;;;6192758;23;20020;-78
2021/10/02 03:53:38;;;;;;;29.65;16.60;;;18.60;92.70;;;;;;6193802;23;20016;-78
2021/10/02 03:56:43;;;;;;;30.05;16.58;;;18.70;92.70;;;;;;6193994;23;20024;-78
2021/10/02 03:59:47;;;;;;;27.75;17.73;;;18.70;92.60;;;;;;6189173;23;20468;-78
2021/10/02 04:02:51;;;;;;;28.73;17.40;;;18.70;92.40;;;;;;6193598;23;20020;-78
2021/10/02 04:05:55;;;;;;;28.70;16.77;;;18.70;92.50;;;;;;6190878;23;20024;-78
2021/10/02 04:08:59;;;;;;;24.38;15.55;;;18.70;92.60;;;;;;6193951;23;20020;-79
2021/10/02 04:12:03;;;;;;;28.85;16.83;;;18.70;92.70;;;;;;6193968;23;20016;-78
2021/10/02 04:15:08;;;;;;;22.10;16.65;;;18.60;92.70;;;;;;6193465;23;20073;-78
2021/10/02 04:18:13;;;;;;;27.02;16.38;;;18.60;92.80;;;;;;6193626;23;20365;-78
2021/10/02 04:21:17;;;;;;;29.50;16.38;;;18.60;92.60;;;;;;6193825;23;20016;-78
2021/10/02 04:24:23;;;;;;;22.75;15.07;;;18.70;92.70;;;;;;6193702;23;20040;-78
2021/10/02 04:27:27;;;;;;;28.35;15.75;;;18.60;92.60;;;;;;6192468;23;20016;-78
2021/10/02 04:30:31;;;;;;;29.05;16.98;;;18.60;92.30;;;;;;6193806;23;20020;-78
2021/10/02 04:33:36;;;;;;;26.75;15.95;;;18.50;92.30;;;;;;6193599;23;20024;-78
2021/10/02 04:36:40;;;;;;;27.70;16.13;;;18.40;92.70;;;;;;6193539;23;20048;-78
2021/10/02 04:39:44;;;;;;;25.20;16.95;;;18.40;92.90;;;;;;6192533;23;20016;-78
2021/10/02 04:42:48;;;;;;;25.55;16.65;;;18.40;92.80;;;;;;6193752;23;20024;-78
2021/10/02 04:45:52;;;;;;;30.65;16.17;;;18.50;92.80;;;;;;6192574;23;20015;-78
2021/10/02 04:48:56;;;;;;;25.88;17.08;;;18.40;92.80;;;;;;6193461;23;20521;-78
2021/10/02 04:52:00;;;;;;;23.58;16.27;;;18.30;93.00;;;;;;6193292;23;20039;-78
2021/10/02 04:55:05;;;;;;;28.80;17.75;;;18.30;93.10;;;;;;6175095;23;20165;-77
2021/10/02 04:58:09;;;;;;;29.13;17.17;;;18.30;92.90;;;;;;6193410;23;20031;-78
2021/10/02 05:01:13;;;;;;;28.17;17.83;;;18.10;93.40;;;;;;6192420;23;20036;-78
2021/10/02 05:04:17;;;;;;;28.77;16.13;;;18.20;93.40;;;;;;6193128;23;20024;-78
2021/10/02 05:07:21;;;;;;;23.90;15.88;;;18.30;93.10;;;;;;6184971;23;20212;-78
2021/10/02 05:10:25;;;;;;;26.77;16.48;;;18.40;93.00;;;;;;6192262;23;20023;-78
2021/10/02 05:13:32;;;;;;;23.98;16.17;;;18.40;92.60;;;;;;6192146;23;20334;-78
2021/10/02 05:16:36;;;;;;;26.35;15.95;;;18.50;92.40;;;;;;6193060;23;20024;-77
2021/10/02 05:19:40;;;;;;;27.27;16.77;;;18.60;92.20;;;;;;6193231;23;20024;-78
2021/10/02 05:22:44;;;;;;;28.80;16.38;;;18.70;91.90;;;;;;6193111;23;20020;-78
2021/10/02 05:25:48;;;;;;;26.65;16.08;;;18.60;92.20;;;;;;6192758;23;20020;-78
2021/10/02 05:28:51;;;;;;;31.17;16.50;;;18.70;92.00;;;;;;6193082;23;20445;-78
2021/10/02 05:31:55;;;;;;;26.20;16.55;;;18.70;91.80;;;;;;6193090;23;20488;-78
2021/10/02 05:34:59;;;;;;;28.60;16.23;;;18.50;91.80;;;;;;6191980;23;20012;-78
2021/10/02 05:38:03;;;;;;;27.48;15.55;;;18.60;92.40;;;;;;6192949;23;20032;-78
2021/10/02 05:41:07;;;;;;;27.35;15.27;;;19.40;91.40;;;;;;6192892;23;20036;-79
2021/10/02 05:44:11;;;;;;;24.30;14.68;;;20.40;88.40;;;;;;6191902;23;20036;-79
2021/10/02 05:47:15;;;;;;;27.65;14.98;;;21.10;85.50;;;;;;6192967;23;20016;-76
2021/10/02 05:50:19;;;;;;;27.27;14.38;;;21.60;83.60;;;;;;6192005;23;20020;-75
2021/10/02 05:53:24;;;;;;;21.45;13.80;;;22.60;80.60;;;;;;6192492;23;20020;-74
2021/10/02 05:56:27;;;;;;;24.95;14.40;;;23.40;77.10;;;;;;6192855;23;20298;-78
2021/10/02 05:59:32;;;;;;;27.58;15.70;;;23.70;75.40;;;;;;6187194;23;20016;-78
2021/10/02 06:02:36;;;;;;;19.27;14.77;;;23.60;75.10;;;;;;6193308;23;20020;-77
2021/10/02 06:05:40;;;;;;;25.00;15.63;;;23.70;75.00;;;;;;6191605;23;20044;-78
2021/10/02 06:08:44;;;;;;;34.67;16.65;;;23.90;74.60;;;;;;6192853;23;20016;-78
2021/10/02 06:11:48;;;;;;;24.10;15.50;;;24.10;74.00;;;;;;6193072;23;20024;-77
2021/10/02 06:14:52;;;;;;;28.75;17.67;;;24.40;73.20;;;;;;6192882;23;20012;-78
2021/10/02 06:17:56;;;;;;;26.85;16.58;;;24.50;72.70;;;;;;6192823;23;20027;-77
2021/10/02 06:21:00;;;;;;;42.63;24.00;;;24.60;72.30;;;;;;6192659;23;20476;-77
2021/10/02 06:24:04;;;;;;;39.10;21.73;;;24.50;73.40;;;;;;6192467;23;20027;-77
2021/10/02 06:27:09;;;;;;;27.27;19.00;;;24.40;73.80;;;;;;6192387;23;20016;-76
2021/10/02 06:30:13;;;;;;;34.72;19.52;;;24.40;74.10;;;;;;6192658;23;20065;-75
2021/10/02 06:33:17;;;;;;;28.10;15.85;;;24.40;74.20;;;;;;6191300;23;20024;-76
2021/10/02 06:36:21;;;;;;;34.25;18.02;;;24.30;75.00;;;;;;6192775;23;20024;-76
2021/10/02 06:39:25;;;;;;;24.27;15.05;;;24.00;75.60;;;;;;6193590;23;20032;-76
2021/10/02 06:42:30;;;;;;;28.17;14.75;;;23.80;76.80;;;;;;6193543;23;20283;-74
2021/10/02 06:45:34;;;;;;;23.80;14.27;;;23.80;76.90;;;;;;6194433;23;20028;-76
2021/10/02 06:48:38;;;;;;;27.98;14.95;;;23.70;75.80;;;;;;6194394;23;20020;-75
2021/10/02 06:51:43;;;;;;;19.02;14.13;;;23.40;77.00;;;;;;6193466;23;20016;-74
2021/10/02 06:54:47;;;;;;;30.75;14.93;;;23.30;78.40;;;;;;6194263;23;20463;-74
2021/10/02 06:57:51;;;;;;;51.53;17.80;;;23.60;77.30;;;;;;6193232;23;20028;-74
2021/10/02 07:00:55;;;;;;;28.02;16.60;;;23.80;76.80;;;;;;6194094;23;20016;-74
2021/10/02 07:03:59;;;;;;;23.73;15.90;;;24.10;75.70;;;;;;6194412;23;20345;-72
2021/10/02 07:07:04;;;;;;;25.50;14.82;;;24.00;76.60;;;;;;6186615;23;20048;-73
2021/10/02 07:10:10;;;;;;;42.45;16.48;;;24.30;76.30;;;;;;6194130;23;20024;-74
2021/10/02 07:13:14;;;;;;;36.05;15.98;;;24.60;75.00;;;;;;6194121;23;20037;-74
2021/10/02 07:16:18;;;;;;;27.08;15.20;;;24.50;74.50;;;;;;6194305;23;20020;-75
2021/10/02 07:19:22;;;;;;;27.27;15.57;;;24.60;74.80;;;;;;6194143;23;20028;-74
2021/10/02 07:22:26;;;;;;;18.92;14.20;;;24.80;75.10;;;;;;6194199;23;20476;-73
2021/10/02 07:25:30;;;;;;;26.92;15.02;;;25.20;74.50;;;;;;6194174;23;20016;-75
2021/10/02 07:28:34;;;;;;;25.33;14.38;;;25.40;74.10;;;;;;6193083;23;20298;-73
2021/10/02 07:31:38;;;;;;;29.30;15.10;;;25.70;74.00;;;;;;6193883;23;20013;-75
2021/10/02 07:34:42;;;;;;;39.67;17.52;;;26.10;74.00;;;;;;6193954;23;20459;-74
2021/10/02 07:37:46;;;;;;;20.90;14.00;;;26.20;73.70;;;;;;6193852;23;20028;-77
2021/10/02 07:40:51;;;;;;;26.00;14.23;;;26.30;73.50;;;;;;6194003;23;20020;-76
2021/10/02 07:43:59;;;;;;;29.40;14.50;;;26.40;73.40;;;;;;6193465;23;20200;-78
2021/10/02 07:47:04;;;;;;;27.70;15.82;;;26.20;73.10;;;;;;6194074;23;20021;-73
2021/10/02 07:50:11;;;;;;;28.70;14.30;;;26.20;73.70;;;;;;6193012;23;20024;-73
2021/10/02 07:53:16;;;;;;;25.35;14.82;;;26.20;74.20;;;;;;6193955;23;20024;-72
2021/10/02 07:56:23;;;;;;;22.05;14.25;;;26.00;74.10;;;;;;6194102;23;20051;-73
2021/10/02 07:59:27;;;;;;;23.17;14.38;;;26.00;74.40;;;;;;6184947;23;20028;-74
2021/10/02 08:02:32;;;;;;;19.67;14.20;;;26.00;74.60;;;;;;6193734;23;20032;-74
2021/10/02 08:05:35;;;;;;;22.88;14.05;;;26.20;74.40;;;;;;6192004;23;20036;-74
2021/10/02 08:08:42;;;;;;;20.45;13.25;;;26.40;74.10;;;;;;6193586;23;20020;-76
2021/10/02 08:11:46;;;;;;;24.20;13.07;;;26.60;73.50;;;;;;6193687;23;20036;-74
2021/10/02 08:14:50;;;;;;;22.63;13.45;;;26.70;72.90;;;;;;6193200;23;20026;-74
2021/10/02 08:17:55;;;;;;;22.20;14.88;;;26.70;72.40;;;;;;6193550;23;20440;-74
2021/10/02 08:20:59;;;;;;;19.38;13.63;;;26.70;72.20;;;;;;6192583;23;20272;-76
2021/10/02 08:24:04;;;;;;;23.42;14.48;;;26.60;72.50;;;;;;6193426;23;20016;-73
2021/10/02 08:27:10;;;;;;;26.60;14.93;;;26.50;72.50;;;;;;6193684;23;20020;-73
2021/10/02 08:30:16;;;;;;;14.70;12.13;;;26.30;72.60;;;;;;6193514;23;20069;-73
2021/10/02 08:33:20;;;;;;;19.10;12.02;;;26.20;72.80;;;;;;6194075;23;20338;-74
2021/10/02 08:36:24;;;;;;;21.38;11.93;;;26.20;73.40;;;;;;6193698;23;20016;-74
2021/10/02 08:39:28;;;;;;;19.90;11.93;;;26.10;73.40;;;;;;6193255;23;20073;-74
2021/10/02 08:42:35;;;;;;;22.85;12.82;;;26.10;73.90;;;;;;6193154;23;20032;-74
2021/10/02 08:45:40;;;;;;;22.23;13.82;;;26.10;73.90;;;;;;6193355;23;20024;-74
2021/10/02 08:49:09;;;;;;;19.48;13.00;;;26.10;74.20;;;;;;6192486;23;20016;-74
2021/10/02 08:52:15;;;;;;;19.35;13.05;;;26.10;74.00;;;;;;6193302;23;20024;-74
2021/10/02 08:55:21;;;;;;;25.77;13.93;;;26.10;73.30;;;;;;6192477;23;20172;-74
2021/10/02 08:58:25;;;;;;;22.25;13.40;;;26.10;73.30;;;;;;6186902;23;20073;-77
2021/10/02 09:01:29;;;;;;;21.02;13.13;;;26.10;73.10;;;;;;6191787;23;20070;-75
2021/10/02 09:04:33;;;;;;;19.00;13.20;;;26.10;73.50;;;;;;6192840;23;20016;-74
2021/10/02 09:07:37;;;;;;;21.15;13.05;;;26.10;73.70;;;;;;6183240;23;20464;-75
2021/10/02 09:10:42;;;;;;;20.95;13.35;;;26.20;73.40;;;;;;6192714;23;20028;-75
2021/10/02 09:13:46;;;;;;;24.10;13.77;;;26.10;73.60;;;;;;6192718;23;20023;-75
2021/10/02 09:16:55;;;;;;;20.73;12.35;;;26.00;74.00;;;;;;6193152;23;20112;-77
2021/10/02 09:19:59;;;;;;;19.42;12.05;;;25.90;74.50;;;;;;6175178;23;20024;-77
2021/10/02 09:23:08;;;;;;;17.55;12.70;;;25.80;74.50;;;;;;6192944;23;20276;-75
2021/10/02 09:26:14;;;;;;;20.13;12.50;;;25.80;74.70;;;;;;6193031;23;20184;-76
2021/10/02 09:29:37;;;;;;;16.88;12.48;;;25.70;74.10;;;;;;6192753;23;20180;-73
2021/10/02 09:32:46;;;;;;;22.30;14.23;;;25.60;74.60;;;;;;6193068;23;20024;-77
2021/10/02 09:35:51;;;;;;;15.35;12.30;;;25.60;75.00;;;;;;6192993;23;20016;-75
2021/10/02 09:38:55;;;;;;;18.73;12.57;;;25.60;74.90;;;;;;6192224;23;20046;-73
2021/10/02 09:41:59;;;;;;;22.00;14.52;;;25.60;75.70;;;;;;6192140;23;20024;-74
2021/10/02 09:45:26;;;;;;;28.08;15.40;;;25.70;74.40;;;;;;6192597;23;20036;-76
2021/10/02 09:48:35;;;;;;;25.25;15.75;;;25.70;74.10;;;;;;6192031;23;20535;-76
2021/10/02 09:51:42;;;;;;;34.17;18.10;;;25.70;73.80;;;;;;6191759;23;20341;-75
2021/10/02 09:54:49;;;;;;;21.27;16.52;;;25.70;74.30;;;;;;6192530;23;20341;-75
2021/10/02 09:58:07;;;;;;;28.23;17.30;;;25.70;74.50;;;;;;6188322;23;20028;-74
2021/10/02 10:01:25;;;;;;;25.38;16.33;;;25.70;74.90;;;;;;6192886;23;20016;-75
2021/10/02 10:04:29;;;;;;;20.52;14.73;;;25.70;74.40;;;;;;6192883;23;20020;-73
2021/10/02 10:07:33;;;;;;;22.17;15.63;;;25.80;74.70;;;;;;6183210;23;20028;-76
2021/10/02 10:10:39;;;;;;;22.60;14.55;;;25.80;75.00;;;;;;6192826;23;20012;-76
2021/10/02 10:13:58;;;;;;;21.67;14.88;;;25.90;74.80;;;;;;6192541;23;20175;-74
2021/10/02 10:17:08;;;;;;;17.38;13.65;;;25.90;74.60;;;;;;6192841;23;20020;-74
2021/10/02 10:20:12;;;;;;;15.77;12.27;;;25.90;74.90;;;;;;6191870;23;20024;-75
2021/10/02 10:23:39;;;;;;;26.45;14.65;;;25.90;75.50;;;;;;6192843;23;20021;-74
2021/10/02 10:26:45;;;;;;;17.13;12.43;;;25.90;75.80;;;;;;6192723;23;20465;-74
2021/10/02 10:29:49;;;;;;;18.35;13.63;;;25.90;75.70;;;;;;6174479;23;20040;-74
2021/10/02 10:33:05;;;;;;;30.75;16.90;;;25.90;76.20;;;;;;6192601;23;20100;-74
2021/10/02 10:36:12;;;;;;;21.20;13.95;;;25.90;76.80;;;;;;6191479;23;20024;-74
2021/10/02 10:39:16;;;;;;;29.13;17.58;;;26.00;77.90;;;;;;6192305;23;20028;-73
2021/10/02 10:42:20;;;;;;;23.83;13.60;;;26.10;79.40;;;;;;6174252;23;20020;-73
2021/10/02 10:45:25;;;;;;;21.33;12.73;;;26.10;79.40;;;;;;6192399;23;20020;-74
2021/10/02 10:48:30;;;;;;;17.45;12.73;;;26.10;80.00;;;;;;6191387;23;20016;-74
2021/10/02 10:51:35;;;;;;;22.73;14.15;;;26.20;80.00;;;;;;6191493;23;20020;-74
2021/10/02 10:54:42;;;;;;;17.90;12.43;;;26.10;79.90;;;;;;6191454;23;20029;-74
2021/10/02 10:57:48;;;;;;;20.40;13.02;;;26.10;80.20;;;;;;6187804;23;20028;-74
2021/10/02 11:00:52;;;;;;;26.00;12.73;;;26.00;80.60;;;;;;6191534;23;20025;-74
2021/10/02 11:03:56;;;;;;;19.83;11.95;;;26.00;81.40;;;;;;6192614;23;20024;-74
2021/10/02 11:07:01;;;;;;;17.50;11.40;;;26.00;80.70;;;;;;6185392;23;20029;-74
2021/10/02 11:10:05;;;;;;;17.35;11.80;;;26.10;80.80;;;;;;6192525;23;20461;-74
2021/10/02 11:13:13;;;;;;;15.13;11.23;;;26.10;80.60;;;;;;6174493;23;20012;-74
2021/10/02 11:16:31;;;;;;;15.70;11.32;;;26.10;80.60;;;;;;6192507;23;20024;-73
2021/10/02 11:19:43;;;;;;;14.38;10.55;;;26.20;80.70;;;;;;6192695;23;20081;-74
2021/10/02 11:23:18;;;;;;;17.65;11.15;;;26.20;80.40;;;;;;6174164;23;20024;-73
2021/10/02 11:26:28;;;;;;;16.95;12.88;;;26.20;80.80;;;;;;6194521;23;20024;-74
2021/10/02 11:29:37;;;;;;;17.67;12.48;;;26.20;80.10;;;;;;6194480;23;20024;-74
2021/10/02 11:32:41;;;;;;;19.15;11.30;;;26.20;80.20;;;;;;6194006;23;20024;-74
2021/10/02 11:35:45;;;;;;;14.18;10.68;;;26.30;80.00;;;;;;6192762;23;20024;-73
2021/10/02 11:39:07;;;;;;;16.63;13.88;;;26.20;79.80;;;;;;6193201;23;20032;-73
2021/10/02 11:42:12;;;;;;;13.40;11.32;;;26.20;79.50;;;;;;6194057;23;20036;-74
2021/10/02 11:45:33;;;;;;;16.67;11.75;;;26.20;79.60;;;;;;6193985;23;20016;-73
2021/10/02 11:48:40;;;;;;;19.40;11.63;;;26.20;79.10;;;;;;6193422;23;20020;-73
2021/10/02 11:52:13;;;;;;;19.02;11.95;;;26.10;78.50;;;;;;6194062;23;20024;-73
2021/10/02 11:55:36;;;;;;;13.85;11.02;;;26.10;77.90;;;;;;6193159;23;20172;-73
2021/10/02 11:58:43;;;;;;;15.90;10.77;;;26.00;77.60;;;;;;6185276;23;20028;-74
2021/10/02 12:01:48;;;;;;;18.25;11.82;;;26.00;78.20;;;;;;6193801;23;20016;-73
2021/10/02 12:04:52;;;;;;;13.68;11.80;;;26.00;78.70;;;;;;6158619;23;20020;-73
2021/10/02 12:07:56;;;;;;;15.52;11.18;;;25.90;79.10;;;;;;6193738;23;20134;-73
2021/10/02 12:11:02;;;;;;;15.38;11.98;;;25.90;79.00;;;;;;6193887;23;20040;-73
2021/10/02 12:14:07;;;;;;;14.48;11.05;;;25.90;77.50;;;;;;6193964;23;20455;-73
2021/10/02 12:17:11;;;;;;;17.25;11.63;;;25.90;77.30;;;;;;6193997;23;20024;-73
2021/10/02 12:20:15;;;;;;;13.77;11.68;;;25.90;76.60;;;;;;6193863;23;20024;-73
2021/10/02 12:23:19;;;;;;;16.02;11.60;;;25.80;76.60;;;;;;6193590;23;20337;-74
2021/10/02 12:26:24;;;;;;;17.40;11.57;;;25.90;76.20;;;;;;6193677;23;20016;-73
2021/10/02 12:29:47;;;;;;;14.27;11.88;;;25.90;76.40;;;;;;6192567;23;20024;-73
2021/10/02 12:33:03;;;;;;;16.45;11.63;;;25.90;75.20;;;;;;6192616;23;20020;-72
2021/10/02 12:36:07;;;;;;;13.55;11.38;;;26.00;74.90;;;;;;6193397;23;20040;-72
2021/10/02 12:39:11;;;;;;;17.08;14.05;;;26.00;74.80;;;;;;6193536;23;20028;-75
2021/10/02 12:42:37;;;;;;;16.85;13.10;;;26.00;74.90;;;;;;6193537;23;20460;-75
2021/10/02 12:45:41;;;;;;;19.90;15.07;;;26.00;74.70;;;;;;6192463;23;20020;-72
2021/10/02 12:48:45;;;;;;;23.92;15.45;;;26.00;74.20;;;;;;6193698;23;20024;-72
2021/10/02 12:51:50;;;;;;;21.75;15.80;;;26.00;74.90;;;;;;6193746;23;20024;-70
2021/10/02 12:54:56;;;;;;;20.30;14.68;;;25.90;75.30;;;;;;6193494;23;20020;-68
2021/10/02 12:58:00;;;;;;;15.25;13.40;;;25.90;75.10;;;;;;6186353;23;20036;-69
2021/10/02 13:01:04;;;;;;;16.73;12.38;;;25.80;75.30;;;;;;6192621;23;20016;-69
2021/10/02 13:04:17;;;;;;;17.75;13.77;;;25.80;75.60;;;;;;6192719;23;20448;-70
2021/10/02 13:07:22;;;;;;;19.08;13.52;;;25.80;75.90;;;;;;6183946;23;20028;-71
2021/10/02 13:10:26;;;;;;;16.23;12.80;;;25.80;77.10;;;;;;6193274;23;20020;-71
2021/10/02 13:13:30;;;;;;;18.48;12.43;;;25.80;78.40;;;;;;6193223;23;20016;-71
2021/10/02 13:16:35;;;;;;;19.38;12.60;;;25.80;80.10;;;;;;6193387;23;20460;-71
2021/10/02 13:19:38;;;;;;;24.95;13.05;;;25.70;81.20;;;;;;6193127;23;20047;-71
2021/10/02 13:22:48;;;;;;;37.17;13.95;;;25.60;83.40;;;;;;6192196;23;20036;-72
2021/10/02 13:25:58;;;;;;;21.30;12.02;;;25.50;83.80;;;;;;6193246;23;20016;-71
2021/10/02 13:29:02;;;;;;;29.08;14.43;;;25.30;83.40;;;;;;6193345;23;20020;-70
2021/10/02 13:32:16;;;;;;;23.67;13.35;;;24.90;87.50;;;;;;6193127;23;20016;-70
2021/10/02 13:35:22;;;;;;;21.13;11.32;;;24.50;89.70;;;;;;6192903;23;20016;-70
2021/10/02 13:38:44;;;;;;;19.77;12.60;;;24.40;89.60;;;;;;6193032;23;20031;-71
2021/10/02 13:41:50;;;;;;;14.77;9.65;;;24.30;90.50;;;;;;6192029;23;20020;-70
2021/10/02 13:44:56;;;;;;;15.20;10.55;;;24.20;87.60;;;;;;6192918;23;20492;-70
2021/10/02 13:48:07;;;;;;;16.02;10.25;;;24.10;87.20;;;;;;6193057;23;20016;-70
2021/10/02 13:51:14;;;;;;;17.90;10.48;;;24.10;89.10;;;;;;6192028;23;20020;-70
2021/10/02 13:54:21;;;;;;;14.38;10.85;;;24.10;87.10;;;;;;6192938;23;20012;-71
2021/10/02 13:57:28;;;;;;;15.68;10.82;;;24.00;89.70;;;;;;6186398;23;20020;-71
2021/10/02 14:00:33;;;;;;;14.00;9.50;;;24.00;87.90;;;;;;6191892;23;20024;-70
2021/10/02 14:03:38;;;;;;;15.32;9.55;;;24.00;90.00;;;;;;6192697;23;20016;-70
2021/10/02 14:06:42;;;;;;;14.20;9.80;;;24.00;90.40;;;;;;6186748;23;20032;-70
2021/10/02 14:09:46;;;;;;;16.65;11.15;;;24.00;90.60;;;;;;6192831;23;20032;-71
2021/10/02 14:12:50;;;;;;;19.05;10.20;;;24.00;91.50;;;;;;6192643;23;20345;-71
2021/10/02 14:15:54;;;;;;;10.25;8.43;;;23.90;90.60;;;;;;6193055;23;20065;-71
2021/10/02 14:18:58;;;;;;;14.10;9.70;;;23.80;88.10;;;;;;6191737;23;20468;-71
2021/10/02 14:22:03;;;;;;;14.77;9.75;;;23.80;90.50;;;;;;6191696;23;20013;-71
2021/10/02 14:25:09;;;;;;;15.02;10.90;;;23.90;91.40;;;;;;6192344;23;20064;-71
2021/10/02 14:28:13;;;;;;;15.07;10.55;;;24.00;91.50;;;;;;6192397;23;20472;-71
2021/10/02 14:31:18;;;;;;;16.77;10.45;;;24.00;90.90;;;;;;6192150;23;20342;-71
2021/10/02 14:34:21;;;;;;;18.50;12.43;;;24.10;91.30;;;;;;6192108;23;20338;-71
2021/10/02 14:37:25;;;;;;;17.20;12.95;;;24.10;92.10;;;;;;6192291;23;20016;-71
2021/10/02 14:40:30;;;;;;;21.88;14.35;;;24.10;92.40;;;;;;6192138;23;20040;-71
2021/10/02 14:43:35;;;;;;;18.20;13.20;;;24.00;92.60;;;;;;6190922;23;20035;-71
2021/10/02 14:46:40;;;;;;;19.70;12.40;;;24.10;92.50;;;;;;6192287;23;20325;-71
2021/10/02 14:49:44;;;;;;;18.35;13.38;;;24.10;92.10;;;;;;6192269;23;20472;-71
2021/10/02 14:52:48;;;;;;;20.27;11.45;;;24.10;92.80;;;;;;6191940;23;20040;-71
2021/10/02 14:55:54;;;;;;;18.02;11.27;;;24.00;91.70;;;;;;6192179;23;20024;-71
2021/10/02 14:59:00;;;;;;;24.48;11.13;;;24.00;91.00;;;;;;6192686;23;20028;-71
2021/10/02 15:02:05;;;;;;;15.05;10.88;;;24.00;90.90;;;;;;6193999;23;20036;-71
2021/10/02 15:05:11;;;;;;;16.63;9.77;;;23.90;90.80;;;;;;6193753;23;20024;-70
2021/10/02 15:08:17;;;;;;;18.63;9.02;;;24.00;90.10;;;;;;6192923;23;20377;-71
2021/10/02 15:11:21;;;;;;;11.18;8.52;;;24.00;88.90;;;;;;6193528;23;20020;-71
2021/10/02 15:14:29;;;;;;;16.85;8.25;;;24.10;87.40;;;;;;6193738;23;20496;-71
2021/10/02 15:17:33;;;;;;;15.43;8.27;;;24.10;87.10;;;;;;6193855;23;20020;-71
2021/10/02 15:20:39;;;;;;;13.48;8.02;;;24.10;86.60;;;;;;6193642;23;20048;-71
2021/10/02 15:23:50;;;;;;;12.20;9.32;;;24.00;87.80;;;;;;6192665;23;20409;-71
2021/10/02 15:26:56;;;;;;;11.45;7.97;;;23.90;88.10;;;;;;6193552;23;20020;-70
2021/10/02 15:30:01;;;;;;;11.73;8.50;;;23.90;85.50;;;;;;6192436;23;20012;-71
2021/10/02 15:33:07;;;;;;;13.40;8.68;;;23.80;87.70;;;;;;6193397;23;20024;-71
2021/10/02 15:36:12;;;;;;;11.73;8.60;;;23.80;87.90;;;;;;6193785;23;20028;-71
2021/10/02 15:39:18;;;;;;;14.45;8.40;;;23.70;88.90;;;;;;6193610;23;20036;-71
2021/10/02 15:42:23;;;;;;;15.93;9.27;;;23.60;88.40;;;;;;6192342;23;20019;-71
2021/10/02 15:45:28;;;;;;;16.48;8.45;;;23.60;89.60;;;;;;6192469;23;20039;-71
2021/10/02 15:48:35;;;;;;;12.20;8.10;;;23.70;88.00;;;;;;6193350;23;20016;-71
2021/10/02 15:51:39;;;;;;;10.05;7.43;;;23.70;87.50;;;;;;6193233;23;20024;-71
2021/10/02 15:54:46;;;;;;;13.95;8.63;;;23.70;87.20;;;;;;6193329;23;20373;-71
2021/10/02 15:57:50;;;;;;;12.70;9.50;;;23.70;86.00;;;;;;6183850;23;20016;-70
2021/10/02 16:00:59;;;;;;;18.88;9.43;;;23.70;87.10;;;;;;6193203;23;20024;-71
2021/10/02 16:04:34;;;;;;;19.60;11.45;;;23.70;90.00;;;;;;6192102;23;20035;-71
2021/10/02 16:07:40;;;;;;;15.25;9.48;;;23.70;90.60;;;;;;6182738;23;20024;-71
2021/10/02 16:10:45;;;;;;;19.65;9.43;;;23.70;87.70;;;;;;6192952;23;20349;-70
2021/10/02 16:13:54;;;;;;;19.23;11.07;;;23.70;87.50;;;;;;6191948;23;20016;-70
2021/10/02 16:16:59;;;;;;;18.23;12.23;;;23.70;90.40;;;;;;6192911;23;20013;-71
2021/10/02 16:20:04;;;;;;;22.05;11.63;;;23.60;91.10;;;;;;6192711;23;20028;-70
2021/10/02 16:23:11;;;;;;;19.27;12.02;;;23.60;90.50;;;;;;6192833;23;20016;-70
2021/10/02 16:26:15;;;;;;;23.45;12.38;;;23.60;90.00;;;;;;6191823;23;20036;-71
2021/10/02 16:29:20;;;;;;;17.92;11.13;;;23.50;91.10;;;;;;6192743;23;20127;-70
2021/10/02 16:32:24;;;;;;;15.77;10.15;;;23.50;90.30;;;;;;6192526;23;20386;-71
2021/10/02 16:35:29;;;;;;;14.50;10.10;;;23.50;89.00;;;;;;6192564;23;20016;-71
2021/10/02 16:38:33;;;;;;;23.13;10.52;;;23.50;89.70;;;;;;6193576;23;20036;-71
2021/10/02 16:41:37;;;;;;;15.63;10.63;;;23.50;90.40;;;;;;6193088;23;20322;-70
2021/10/02 16:44:41;;;;;;;23.10;10.90;;;23.40;90.70;;;;;;6192888;23;20016;-71
2021/10/02 16:47:45;;;;;;;23.48;14.50;;;23.40;90.50;;;;;;6192628;23;20081;-71